ADDS METAR Data INFO
IDs: Format: Raw Decoded Include TAF

Data at: 1521 UTC 19 Jan 2018

METAR for:K4I3 (Mount Vernon/Knox Cn, OH, US)
Text:K4I3 191515Z AUTO 20009G14KT 10SM CLR M04/M10 A3010 RMK AO2
Temperature: -4.0°C ( 25°F)
Dewpoint:-10.0°C ( 14°F) [RH = 63%]
Pressure (altimeter):30.10 inches Hg (1019.4 mb)
Winds:from the SSW (200 degrees) at 10 MPH (9 knots; 4.6 m/s) gusting to 16 MPH (14 knots; 7.2 m/s)
Visibility:10 or more sm (16+ km)
Ceiling:at least 12,000 feet AGL
Clouds:sky clear below 12,000 feet AGL
QC Flag:automated observation with no human augmentation